EJU27GM EHAM-LDSP
Flight info
| Callsign | EJU27GM |
|---|---|
| Flight time | 2h 9m |
| Altitude | 37000 |
| Route | EDUPO Z739 MISGO DCT ASBON DCT TUSUK DCT UTABA DCT BEMKI DCT ELMEM DCT DIRAB DCT VESAL DCT PEVAL DCT PUL DCT LOS DCT MINTU DCT SAL |
| Aircraft | A320/M-SDE3FGHIRWY/LB1 |
Departure
| Time | 2026-04-27 14:29 |
|---|---|
| Airport | Amsterdam Airport Schiphol (EHAM) |
Arrival
| Time | 2026-04-27 16:39 |
|---|---|
| Airport | Split Saint Jerome Airport (LDSP) |
| Time | Latitude | Longitude | Altitude | Speed | Heading |
|---|---|---|---|---|---|
| 2026-04-27 14:22 | 52.31314 | 4.74282 | -1 ft | 1 kts | 356° |
| 2026-04-27 14:22 | 52.31392 | 4.74281 | -1 ft | 23 kts | 3° |
| 2026-04-27 14:22 | 52.31579 | 4.74300 | -1 ft | 30 kts | 4° |
| 2026-04-27 14:22 | 52.31786 | 4.74324 | -1 ft | 29 kts | 4° |
| 2026-04-27 14:23 | 52.31984 | 4.74339 | -1 ft | 19 kts | 352° |
| 2026-04-27 14:23 | 52.32029 | 4.74221 | -1 ft | 12 kts | 279° |
| 2026-04-27 14:23 | 52.32037 | 4.74058 | -1 ft | 20 kts | 274° |
| 2026-04-27 14:23 | 52.32045 | 4.73775 | 0 ft | 30 kts | 272° |
| 2026-04-27 14:24 | 52.32062 | 4.73449 | -1 ft | 24 kts | 289° |
| 2026-04-27 14:24 | 52.32177 | 4.73228 | -1 ft | 28 kts | 319° |
| 2026-04-27 14:24 | 52.32337 | 4.73006 | -1 ft | 31 kts | 320° |
| 2026-04-27 14:24 | 52.32480 | 4.72808 | -1 ft | 29 kts | 320° |
| 2026-04-27 14:25 | 52.32627 | 4.72600 | -1 ft | 30 kts | 319° |
| 2026-04-27 14:25 | 52.32761 | 4.72369 | -1 ft | 29 kts | 311° |
| 2026-04-27 14:25 | 52.32899 | 4.72112 | -1 ft | 30 kts | 311° |
| 2026-04-27 14:25 | 52.33027 | 4.71872 | -1 ft | 29 kts | 311° |
| 2026-04-27 14:26 | 52.33146 | 4.71631 | -1 ft | 17 kts | 283° |
| 2026-04-27 14:26 | 52.33099 | 4.71453 | -1 ft | 19 kts | 218° |
| 2026-04-27 14:26 | 52.32985 | 4.71290 | -1 ft | 24 kts | 221° |
| 2026-04-27 14:26 | 52.32875 | 4.71121 | -1 ft | 17 kts | 236° |
| 2026-04-27 14:27 | 52.32866 | 4.70957 | -2 ft | 12 kts | 277° |
| 2026-04-27 14:27 | 52.32916 | 4.70898 | -2 ft | 1 kts | 0° |
| 2026-04-27 14:27 | 52.32924 | 4.70898 | -2 ft | 2 kts | 0° |
| 2026-04-27 14:27 | 52.32936 | 4.70898 | -2 ft | 0 kts | 0° |
| 2026-04-27 14:28 | 52.32994 | 4.70902 | -3 ft | 35 kts | 3° |
| 2026-04-27 14:28 | 52.33487 | 4.70951 | -2 ft | 103 kts | 3° |
| 2026-04-27 14:29 | 52.34389 | 4.71029 | -4 ft | 154 kts | 3° |
| 2026-04-27 14:29 | 52.35529 | 4.71132 | 407 ft | 165 kts | 4° |
| 2026-04-27 14:29 | 52.36677 | 4.71224 | 1023 ft | 166 kts | 3° |
| 2026-04-27 14:29 | 52.37844 | 4.71286 | 1490 ft | 176 kts | 2° |
| 2026-04-27 14:30 | 52.39123 | 4.71337 | 1834 ft | 191 kts | 2° |
| 2026-04-27 14:30 | 52.40513 | 4.71397 | 2130 ft | 210 kts | 2° |
| 2026-04-27 14:30 | 52.42050 | 4.71467 | 2645 ft | 230 kts | 2° |
| 2026-04-27 14:30 | 52.43703 | 4.71575 | 3209 ft | 248 kts | 4° |
| 2026-04-27 14:31 | 52.45467 | 4.71812 | 3936 ft | 259 kts | 6° |
| 2026-04-27 14:31 | 52.47267 | 4.72084 | 4821 ft | 262 kts | 5° |
| 2026-04-27 14:31 | 52.49100 | 4.72341 | 5672 ft | 266 kts | 5° |
| 2026-04-27 14:31 | 52.50946 | 4.72766 | 6500 ft | 271 kts | 19° |
| 2026-04-27 14:32 | 52.52568 | 4.74354 | 7313 ft | 276 kts | 45° |
| 2026-04-27 14:32 | 52.53657 | 4.76961 | 8141 ft | 280 kts | 65° |
| 2026-04-27 14:32 | 52.54121 | 4.80061 | 8936 ft | 284 kts | 88° |
| 2026-04-27 14:32 | 52.53828 | 4.83274 | 9709 ft | 288 kts | 110° |
| 2026-04-27 14:33 | 52.52864 | 4.86172 | 10473 ft | 292 kts | 128° |
| 2026-04-27 14:33 | 52.51374 | 4.88564 | 10898 ft | 311 kts | 144° |
| 2026-04-27 14:33 | 52.49535 | 4.90641 | 11225 ft | 329 kts | 146° |
| 2026-04-27 14:33 | 52.47628 | 4.92807 | 11854 ft | 337 kts | 146° |
| 2026-04-27 14:34 | 52.45698 | 4.95024 | 12567 ft | 341 kts | 145° |
| 2026-04-27 14:34 | 52.43756 | 4.97280 | 13266 ft | 345 kts | 145° |
| 2026-04-27 14:34 | 52.41791 | 4.99575 | 13950 ft | 349 kts | 145° |
| 2026-04-27 14:34 | 52.39803 | 5.01891 | 14600 ft | 352 kts | 146° |
| 2026-04-27 14:35 | 52.37790 | 5.04226 | 15233 ft | 356 kts | 146° |
| 2026-04-27 14:35 | 52.35758 | 5.06578 | 15850 ft | 360 kts | 146° |
| 2026-04-27 14:35 | 52.33737 | 5.09033 | 16447 ft | 364 kts | 140° |
| 2026-04-27 14:35 | 52.31944 | 5.12000 | 17026 ft | 369 kts | 133° |
| 2026-04-27 14:36 | 52.30230 | 5.15145 | 17606 ft | 373 kts | 133° |
| 2026-04-27 14:36 | 52.28488 | 5.18319 | 18178 ft | 377 kts | 133° |
| 2026-04-27 14:36 | 52.26753 | 5.21469 | 18700 ft | 380 kts | 133° |
| 2026-04-27 14:36 | 52.24974 | 5.24691 | 19250 ft | 384 kts | 133° |
| 2026-04-27 14:37 | 52.23343 | 5.28159 | 19782 ft | 388 kts | 126° |
| 2026-04-27 14:37 | 52.21781 | 5.31770 | 20312 ft | 391 kts | 126° |
| 2026-04-27 14:37 | 52.20206 | 5.35409 | 20838 ft | 394 kts | 126° |
| 2026-04-27 14:37 | 52.18618 | 5.39071 | 21333 ft | 397 kts | 127° |
| 2026-04-27 14:38 | 52.17014 | 5.42755 | 21817 ft | 400 kts | 127° |
| 2026-04-27 14:38 | 52.15941 | 5.45208 | 22131 ft | 402 kts | 127° |
| 2026-04-27 14:38 | 52.14312 | 5.48932 | 22590 ft | 405 kts | 127° |
| 2026-04-27 14:38 | 52.12671 | 5.52676 | 23049 ft | 408 kts | 127° |
| 2026-04-27 14:39 | 52.11020 | 5.56448 | 23474 ft | 411 kts | 127° |
| 2026-04-27 14:39 | 52.09357 | 5.60245 | 23901 ft | 413 kts | 127° |
| 2026-04-27 14:39 | 52.07682 | 5.64065 | 24300 ft | 416 kts | 127° |
| 2026-04-27 14:39 | 52.05970 | 5.67873 | 24715 ft | 418 kts | 131° |
| 2026-04-27 14:40 | 52.04068 | 5.71463 | 25099 ft | 421 kts | 133° |
| 2026-04-27 14:40 | 52.02140 | 5.75058 | 25494 ft | 423 kts | 133° |
| 2026-04-27 14:40 | 52.00198 | 5.78668 | 25863 ft | 426 kts | 133° |
| 2026-04-27 14:40 | 51.98243 | 5.82297 | 26231 ft | 428 kts | 133° |
| 2026-04-27 14:41 | 51.96279 | 5.85944 | 26588 ft | 431 kts | 133° |
| 2026-04-27 14:41 | 51.94307 | 5.89619 | 26936 ft | 433 kts | 133° |
| 2026-04-27 14:41 | 51.92329 | 5.93315 | 27290 ft | 435 kts | 133° |
| 2026-04-27 14:41 | 51.90340 | 5.97031 | 27626 ft | 438 kts | 133° |
| 2026-04-27 14:42 | 51.88338 | 6.00759 | 27962 ft | 440 kts | 133° |
| 2026-04-27 14:42 | 51.86321 | 6.04507 | 28294 ft | 442 kts | 133° |
| 2026-04-27 14:42 | 51.84294 | 6.08259 | 28606 ft | 444 kts | 133° |
| 2026-04-27 14:42 | 51.82248 | 6.12024 | 28917 ft | 447 kts | 133° |
| 2026-04-27 14:43 | 51.80188 | 6.15798 | 29228 ft | 449 kts | 133° |
| 2026-04-27 14:43 | 51.78118 | 6.19583 | 29526 ft | 451 kts | 133° |
| 2026-04-27 14:43 | 51.76038 | 6.23388 | 29819 ft | 453 kts | 133° |
| 2026-04-27 14:43 | 51.73947 | 6.27212 | 30111 ft | 455 kts | 133° |
| 2026-04-27 14:44 | 51.71845 | 6.31045 | 30391 ft | 457 kts | 133° |
| 2026-04-27 14:44 | 51.69736 | 6.34890 | 30653 ft | 459 kts | 133° |
| 2026-04-27 14:44 | 51.67618 | 6.38745 | 30912 ft | 461 kts | 134° |
| 2026-04-27 14:44 | 51.65486 | 6.42607 | 31176 ft | 462 kts | 134° |
| 2026-04-27 14:45 | 51.63340 | 6.46478 | 31448 ft | 464 kts | 134° |
| 2026-04-27 14:45 | 51.61199 | 6.50346 | 31793 ft | 462 kts | 134° |
| 2026-04-27 14:45 | 51.59065 | 6.54210 | 32127 ft | 461 kts | 134° |
| 2026-04-27 14:45 | 51.56937 | 6.58057 | 32444 ft | 460 kts | 134° |
| 2026-04-27 14:46 | 51.54807 | 6.61902 | 32760 ft | 460 kts | 134° |
| 2026-04-27 14:46 | 51.52682 | 6.65732 | 33082 ft | 459 kts | 134° |
| 2026-04-27 14:46 | 51.50558 | 6.69550 | 33385 ft | 458 kts | 134° |
| 2026-04-27 14:46 | 51.48430 | 6.73365 | 33701 ft | 458 kts | 134° |
| 2026-04-27 14:47 | 51.46307 | 6.77161 | 34005 ft | 457 kts | 134° |
| 2026-04-27 14:47 | 51.44182 | 6.80953 | 34313 ft | 457 kts | 134° |
| 2026-04-27 14:47 | 51.42049 | 6.84727 | 34607 ft | 456 kts | 136° |
| 2026-04-27 14:47 | 51.39713 | 6.88129 | 34877 ft | 453 kts | 145° |
| 2026-04-27 14:48 | 51.37121 | 6.90974 | 35126 ft | 451 kts | 150° |
| 2026-04-27 14:48 | 51.31807 | 6.96306 | 35633 ft | 451 kts | 150° |
| 2026-04-27 14:48 | 51.29188 | 6.98943 | 35861 ft | 451 kts | 150° |
| 2026-04-27 14:49 | 51.26536 | 7.01612 | 36107 ft | 450 kts | 150° |
| 2026-04-27 14:49 | 51.23883 | 7.04276 | 36332 ft | 451 kts | 150° |
| 2026-04-27 14:49 | 51.21229 | 7.06938 | 36544 ft | 451 kts | 150° |
| 2026-04-27 14:49 | 51.18572 | 7.09599 | 36769 ft | 451 kts | 150° |
| 2026-04-27 14:50 | 51.15920 | 7.12248 | 37068 ft | 448 kts | 150° |
| 2026-04-27 14:50 | 51.13285 | 7.14870 | 37199 ft | 445 kts | 150° |
| 2026-04-27 14:50 | 51.08066 | 7.20060 | 37220 ft | 441 kts | 150° |
| 2026-04-27 14:51 | 51.02950 | 7.25138 | 37220 ft | 440 kts | 150° |
| 2026-04-27 14:51 | 50.97759 | 7.30280 | 37222 ft | 440 kts | 150° |
| 2026-04-27 14:52 | 50.92567 | 7.35401 | 37219 ft | 439 kts | 150° |
| 2026-04-27 14:52 | 50.87370 | 7.40511 | 37216 ft | 439 kts | 150° |
| 2026-04-27 14:53 | 50.82180 | 7.45611 | 37218 ft | 439 kts | 150° |
| 2026-04-27 14:53 | 50.76987 | 7.50704 | 37213 ft | 439 kts | 150° |
| 2026-04-27 14:54 | 50.71793 | 7.55773 | 37213 ft | 439 kts | 150° |
| 2026-04-27 14:54 | 50.66662 | 7.60991 | 37210 ft | 439 kts | 148° |
| 2026-04-27 14:55 | 50.61575 | 7.66342 | 37210 ft | 440 kts | 148° |
| 2026-04-27 14:55 | 50.56482 | 7.71675 | 37212 ft | 440 kts | 149° |
| 2026-04-27 14:56 | 50.51360 | 7.76945 | 37211 ft | 440 kts | 149° |
| 2026-04-27 14:56 | 50.46234 | 7.82192 | 37213 ft | 440 kts | 149° |
| 2026-04-27 14:57 | 50.41105 | 7.87446 | 37215 ft | 440 kts | 149° |
| 2026-04-27 14:57 | 50.35979 | 7.92686 | 37216 ft | 440 kts | 149° |
| 2026-04-27 14:58 | 50.30835 | 7.97922 | 37219 ft | 441 kts | 149° |
| 2026-04-27 14:58 | 50.25696 | 8.03144 | 37217 ft | 441 kts | 149° |
| 2026-04-27 14:59 | 50.20552 | 8.08357 | 37225 ft | 441 kts | 149° |
| 2026-04-27 14:59 | 50.15400 | 8.13559 | 37227 ft | 440 kts | 149° |
| 2026-04-27 15:00 | 50.10014 | 8.18010 | 37226 ft | 438 kts | 158° |
| 2026-04-27 15:00 | 50.04522 | 8.21968 | 37233 ft | 438 kts | 158° |
| 2026-04-27 15:01 | 49.98981 | 8.25939 | 37242 ft | 439 kts | 158° |
| 2026-04-27 15:01 | 49.93443 | 8.29914 | 37245 ft | 439 kts | 157° |
| 2026-04-27 15:02 | 49.87900 | 8.33907 | 37247 ft | 439 kts | 158° |
| 2026-04-27 15:02 | 49.82361 | 8.37874 | 37235 ft | 438 kts | 158° |
| 2026-04-27 15:03 | 49.76823 | 8.41816 | 37225 ft | 438 kts | 158° |
| 2026-04-27 15:03 | 49.71292 | 8.45761 | 37219 ft | 438 kts | 157° |
| 2026-04-27 15:04 | 49.65758 | 8.49709 | 37210 ft | 438 kts | 158° |
| 2026-04-27 15:04 | 49.60245 | 8.53619 | 37197 ft | 438 kts | 158° |
| 2026-04-27 15:05 | 49.54710 | 8.57533 | 37186 ft | 438 kts | 158° |
| 2026-04-27 15:05 | 49.49169 | 8.61435 | 37169 ft | 438 kts | 158° |
| 2026-04-27 15:06 | 49.43625 | 8.65326 | 37166 ft | 438 kts | 158° |
| 2026-04-27 15:06 | 49.38078 | 8.69209 | 37165 ft | 438 kts | 158° |
| 2026-04-27 15:07 | 49.32534 | 8.73084 | 37160 ft | 438 kts | 158° |
| 2026-04-27 15:07 | 49.26986 | 8.76964 | 37160 ft | 438 kts | 158° |
| 2026-04-27 15:08 | 49.21434 | 8.80833 | 37163 ft | 439 kts | 158° |
| 2026-04-27 15:08 | 49.15867 | 8.84691 | 37164 ft | 440 kts | 158° |
| 2026-04-27 15:09 | 49.10299 | 8.88547 | 37172 ft | 439 kts | 157° |
| 2026-04-27 15:09 | 49.04734 | 8.92408 | 37171 ft | 439 kts | 158° |
| 2026-04-27 15:10 | 48.99170 | 8.96253 | 37171 ft | 439 kts | 158° |
| 2026-04-27 15:10 | 48.93606 | 9.00076 | 37172 ft | 439 kts | 158° |
| 2026-04-27 15:11 | 48.88036 | 9.03894 | 37173 ft | 439 kts | 158° |
| 2026-04-27 15:11 | 48.82465 | 9.07716 | 37174 ft | 440 kts | 158° |
| 2026-04-27 15:12 | 48.76887 | 9.11517 | 37167 ft | 439 kts | 158° |
| 2026-04-27 15:12 | 48.71312 | 9.15304 | 37168 ft | 439 kts | 158° |
| 2026-04-27 15:13 | 48.65768 | 9.19068 | 37164 ft | 439 kts | 158° |
| 2026-04-27 15:13 | 48.60192 | 9.22847 | 37167 ft | 439 kts | 158° |
| 2026-04-27 15:14 | 48.54613 | 9.26619 | 37164 ft | 439 kts | 158° |
| 2026-04-27 15:14 | 48.49031 | 9.30386 | 37161 ft | 439 kts | 158° |
| 2026-04-27 15:15 | 48.43454 | 9.34142 | 37163 ft | 439 kts | 158° |
| 2026-04-27 15:15 | 48.37879 | 9.37898 | 37161 ft | 440 kts | 158° |
| 2026-04-27 15:16 | 48.32290 | 9.41647 | 37156 ft | 440 kts | 158° |
| 2026-04-27 15:16 | 48.26717 | 9.45436 | 37158 ft | 441 kts | 153° |
| 2026-04-27 15:17 | 48.21744 | 9.50825 | 37156 ft | 443 kts | 141° |
| 2026-04-27 15:17 | 48.16993 | 9.56715 | 37156 ft | 443 kts | 142° |
| 2026-04-27 15:18 | 48.12210 | 9.62554 | 37159 ft | 444 kts | 142° |
| 2026-04-27 15:18 | 48.07421 | 9.68386 | 37154 ft | 444 kts | 142° |
| 2026-04-27 15:19 | 48.02644 | 9.74220 | 37156 ft | 443 kts | 142° |
| 2026-04-27 15:19 | 47.97865 | 9.80056 | 37166 ft | 444 kts | 142° |
| 2026-04-27 15:20 | 47.93075 | 9.85874 | 37156 ft | 444 kts | 142° |
| 2026-04-27 15:20 | 47.88292 | 9.91665 | 37150 ft | 443 kts | 142° |
| 2026-04-27 15:21 | 47.83506 | 9.97465 | 37152 ft | 444 kts | 142° |
| 2026-04-27 15:21 | 47.78714 | 10.03255 | 37151 ft | 444 kts | 142° |
| 2026-04-27 15:22 | 47.73919 | 10.09033 | 37155 ft | 444 kts | 142° |
| 2026-04-27 15:22 | 47.69120 | 10.14800 | 37154 ft | 443 kts | 142° |
| 2026-04-27 15:23 | 47.64325 | 10.20543 | 37154 ft | 443 kts | 142° |
| 2026-04-27 15:23 | 47.59529 | 10.26273 | 37154 ft | 443 kts | 142° |
| 2026-04-27 15:24 | 47.55506 | 10.30971 | 37152 ft | 443 kts | 147° |
| 2026-04-27 15:24 | 47.49523 | 10.36790 | 37160 ft | 443 kts | 148° |
| 2026-04-27 15:25 | 47.45216 | 10.40969 | 37162 ft | 442 kts | 148° |
| 2026-04-27 15:25 | 47.40070 | 10.45955 | 37160 ft | 442 kts | 148° |
| 2026-04-27 15:26 | 47.34933 | 10.50935 | 37160 ft | 442 kts | 148° |
| 2026-04-27 15:26 | 47.29790 | 10.55897 | 37160 ft | 442 kts | 148° |
| 2026-04-27 15:27 | 47.24696 | 10.60960 | 37154 ft | 442 kts | 146° |
| 2026-04-27 15:27 | 47.19713 | 10.66253 | 37147 ft | 441 kts | 144° |
| 2026-04-27 15:28 | 47.14748 | 10.71570 | 37141 ft | 441 kts | 145° |
| 2026-04-27 15:28 | 47.09766 | 10.76817 | 37127 ft | 440 kts | 145° |
| 2026-04-27 15:29 | 47.04798 | 10.81973 | 37122 ft | 440 kts | 145° |
| 2026-04-27 15:29 | 46.99765 | 10.87189 | 37113 ft | 440 kts | 145° |
| 2026-04-27 15:30 | 46.94793 | 10.92343 | 37111 ft | 441 kts | 145° |
| 2026-04-27 15:30 | 46.89766 | 10.97563 | 37102 ft | 440 kts | 145° |
| 2026-04-27 15:31 | 46.84796 | 11.02700 | 37085 ft | 440 kts | 145° |
| 2026-04-27 15:31 | 46.80031 | 11.08296 | 37078 ft | 440 kts | 133° |
| 2026-04-27 15:32 | 46.75821 | 11.14868 | 37081 ft | 440 kts | 133° |
| 2026-04-27 15:32 | 46.71664 | 11.21346 | 37072 ft | 440 kts | 133° |
| 2026-04-27 15:33 | 46.67475 | 11.27854 | 37068 ft | 440 kts | 133° |
| 2026-04-27 15:33 | 46.63279 | 11.34349 | 37062 ft | 440 kts | 133° |
| 2026-04-27 15:34 | 46.59080 | 11.40827 | 37056 ft | 440 kts | 133° |
| 2026-04-27 15:34 | 46.54882 | 11.47307 | 37050 ft | 440 kts | 133° |
| 2026-04-27 15:35 | 46.50685 | 11.53763 | 37048 ft | 440 kts | 133° |
| 2026-04-27 15:35 | 46.46484 | 11.60203 | 37055 ft | 439 kts | 133° |
| 2026-04-27 15:36 | 46.42283 | 11.66623 | 37117 ft | 439 kts | 133° |
| 2026-04-27 15:36 | 46.38082 | 11.73027 | 37144 ft | 440 kts | 134° |
| 2026-04-27 15:37 | 46.33793 | 11.79338 | 37169 ft | 440 kts | 135° |
| 2026-04-27 15:37 | 46.29456 | 11.85570 | 37203 ft | 439 kts | 135° |
| 2026-04-27 15:38 | 46.25139 | 11.91791 | 37208 ft | 438 kts | 135° |
| 2026-04-27 15:38 | 46.20868 | 11.97986 | 37212 ft | 438 kts | 135° |
| 2026-04-27 15:39 | 46.16541 | 12.04256 | 37210 ft | 438 kts | 135° |
| 2026-04-27 15:39 | 46.12266 | 12.10419 | 37205 ft | 437 kts | 135° |
| 2026-04-27 15:40 | 46.07956 | 12.16605 | 37158 ft | 437 kts | 135° |
| 2026-04-27 15:40 | 46.03654 | 12.22788 | 37150 ft | 437 kts | 135° |
| 2026-04-27 15:41 | 45.99346 | 12.28952 | 37137 ft | 437 kts | 135° |
| 2026-04-27 15:41 | 45.95032 | 12.35115 | 37120 ft | 437 kts | 135° |
| 2026-04-27 15:42 | 45.90722 | 12.41266 | 37112 ft | 437 kts | 135° |
| 2026-04-27 15:42 | 45.86406 | 12.47407 | 37107 ft | 437 kts | 135° |
| 2026-04-27 15:43 | 45.82092 | 12.53530 | 37083 ft | 436 kts | 135° |
| 2026-04-27 15:43 | 45.77770 | 12.59642 | 37081 ft | 437 kts | 135° |
| 2026-04-27 15:44 | 45.73440 | 12.65749 | 37082 ft | 437 kts | 135° |
| 2026-04-27 15:44 | 45.69113 | 12.71850 | 37075 ft | 437 kts | 135° |
| 2026-04-27 15:45 | 45.64779 | 12.77939 | 37072 ft | 437 kts | 135° |
| 2026-04-27 15:45 | 45.60443 | 12.84027 | 37072 ft | 437 kts | 135° |
| 2026-04-27 15:46 | 45.56098 | 12.90101 | 37069 ft | 437 kts | 135° |
| 2026-04-27 15:46 | 45.51752 | 12.96164 | 37068 ft | 437 kts | 135° |
| 2026-04-27 15:47 | 45.47397 | 13.02221 | 37064 ft | 437 kts | 135° |
| 2026-04-27 15:47 | 45.43042 | 13.08271 | 37066 ft | 438 kts | 135° |
| 2026-04-27 15:48 | 45.38687 | 13.14321 | 37067 ft | 437 kts | 135° |
| 2026-04-27 15:49 | 45.32134 | 13.23368 | 37073 ft | 438 kts | 136° |
| 2026-04-27 15:49 | 45.27905 | 13.29594 | 37076 ft | 437 kts | 131° |
| 2026-04-27 15:50 | 45.23970 | 13.36108 | 37076 ft | 438 kts | 130° |
| 2026-04-27 15:50 | 45.20028 | 13.42692 | 37080 ft | 438 kts | 130° |
| 2026-04-27 15:51 | 45.16022 | 13.49196 | 37083 ft | 438 kts | 131° |
| 2026-04-27 15:51 | 45.11970 | 13.55651 | 37082 ft | 438 kts | 131° |
| 2026-04-27 15:52 | 45.07914 | 13.62097 | 37083 ft | 439 kts | 131° |
| 2026-04-27 15:52 | 45.03866 | 13.68550 | 37101 ft | 438 kts | 131° |
| 2026-04-27 15:53 | 44.99822 | 13.74997 | 37084 ft | 438 kts | 131° |
| 2026-04-27 15:53 | 44.95780 | 13.81430 | 37095 ft | 438 kts | 131° |
| 2026-04-27 15:54 | 44.91737 | 13.87850 | 37085 ft | 438 kts | 131° |
| 2026-04-27 15:54 | 44.87683 | 13.94241 | 37082 ft | 437 kts | 132° |
| 2026-04-27 15:55 | 44.83577 | 14.00542 | 37079 ft | 436 kts | 132° |
| 2026-04-27 15:55 | 44.79447 | 14.06805 | 37077 ft | 436 kts | 133° |
| 2026-04-27 15:56 | 44.75316 | 14.13072 | 37075 ft | 437 kts | 132° |
| 2026-04-27 15:56 | 44.71193 | 14.19341 | 37077 ft | 436 kts | 132° |
| 2026-04-27 15:57 | 44.67125 | 14.25523 | 37077 ft | 437 kts | 132° |
| 2026-04-27 15:57 | 44.62987 | 14.31787 | 37082 ft | 437 kts | 133° |
| 2026-04-27 15:58 | 44.58846 | 14.38031 | 37103 ft | 437 kts | 133° |
| 2026-04-27 15:58 | 44.54702 | 14.44269 | 37099 ft | 437 kts | 133° |
| 2026-04-27 15:59 | 44.50319 | 14.50146 | 36840 ft | 436 kts | 139° |
| 2026-04-27 15:59 | 44.48011 | 14.52904 | 36242 ft | 436 kts | 139° |
| 2026-04-27 15:59 | 44.45703 | 14.55651 | 35690 ft | 434 kts | 139° |
| 2026-04-27 15:59 | 44.43403 | 14.58382 | 35133 ft | 433 kts | 139° |
| 2026-04-27 16:00 | 44.41109 | 14.61106 | 34592 ft | 432 kts | 139° |
| 2026-04-27 16:00 | 44.39594 | 14.62907 | 34253 ft | 430 kts | 139° |
| 2026-04-27 16:00 | 44.36559 | 14.66512 | 33610 ft | 426 kts | 139° |
| 2026-04-27 16:00 | 44.34312 | 14.69176 | 33135 ft | 423 kts | 139° |
| 2026-04-27 16:01 | 44.32077 | 14.71823 | 32661 ft | 419 kts | 139° |
| 2026-04-27 16:01 | 44.29864 | 14.74443 | 32180 ft | 416 kts | 139° |
| 2026-04-27 16:01 | 44.27663 | 14.77050 | 31708 ft | 413 kts | 139° |
| 2026-04-27 16:01 | 44.25476 | 14.79638 | 31236 ft | 411 kts | 139° |
| 2026-04-27 16:02 | 44.23305 | 14.82203 | 30774 ft | 408 kts | 139° |
| 2026-04-27 16:02 | 44.21144 | 14.84752 | 30305 ft | 406 kts | 139° |
| 2026-04-27 16:02 | 44.18995 | 14.87283 | 30071 ft | 404 kts | 139° |
| 2026-04-27 16:03 | 44.14708 | 14.92342 | 30083 ft | 405 kts | 139° |
| 2026-04-27 16:03 | 44.10415 | 14.97376 | 29525 ft | 401 kts | 139° |
| 2026-04-27 16:03 | 44.08314 | 14.99829 | 29059 ft | 398 kts | 139° |
| 2026-04-27 16:04 | 44.06200 | 15.02300 | 28601 ft | 396 kts | 139° |
| 2026-04-27 16:04 | 44.04104 | 15.04755 | 28130 ft | 393 kts | 139° |
| 2026-04-27 16:04 | 44.02020 | 15.07198 | 27682 ft | 390 kts | 139° |
| 2026-04-27 16:04 | 43.99952 | 15.09621 | 27237 ft | 388 kts | 139° |
| 2026-04-27 16:05 | 43.97895 | 15.12025 | 26780 ft | 385 kts | 140° |
| 2026-04-27 16:05 | 43.95849 | 15.14410 | 26336 ft | 382 kts | 140° |
| 2026-04-27 16:05 | 43.93819 | 15.16774 | 25878 ft | 380 kts | 140° |
| 2026-04-27 16:05 | 43.91813 | 15.19146 | 25436 ft | 378 kts | 139° |
| 2026-04-27 16:06 | 43.89843 | 15.21540 | 24988 ft | 375 kts | 138° |
| 2026-04-27 16:06 | 43.87904 | 15.23932 | 24541 ft | 372 kts | 138° |
| 2026-04-27 16:06 | 43.85977 | 15.26313 | 24097 ft | 370 kts | 138° |
| 2026-04-27 16:06 | 43.84059 | 15.28673 | 23651 ft | 368 kts | 138° |
| 2026-04-27 16:07 | 43.82149 | 15.31016 | 23231 ft | 365 kts | 138° |
| 2026-04-27 16:07 | 43.80249 | 15.33342 | 22826 ft | 363 kts | 139° |
| 2026-04-27 16:07 | 43.78360 | 15.35641 | 22432 ft | 361 kts | 139° |
| 2026-04-27 16:07 | 43.76479 | 15.37926 | 22030 ft | 358 kts | 139° |
| 2026-04-27 16:08 | 43.74614 | 15.40187 | 21616 ft | 356 kts | 139° |
| 2026-04-27 16:08 | 43.72757 | 15.42441 | 21204 ft | 354 kts | 139° |
| 2026-04-27 16:08 | 43.70883 | 15.44714 | 20415 ft | 363 kts | 139° |
| 2026-04-27 16:08 | 43.68955 | 15.47048 | 19545 ft | 374 kts | 139° |
| 2026-04-27 16:09 | 43.66973 | 15.49447 | 18661 ft | 384 kts | 139° |
| 2026-04-27 16:09 | 43.62894 | 15.54380 | 16925 ft | 389 kts | 139° |
| 2026-04-27 16:09 | 43.60882 | 15.56811 | 16062 ft | 381 kts | 139° |
| 2026-04-27 16:10 | 43.56961 | 15.61542 | 14308 ft | 368 kts | 139° |
| 2026-04-27 16:10 | 43.53171 | 15.66105 | 12610 ft | 360 kts | 139° |
| 2026-04-27 16:11 | 43.51268 | 15.68391 | 11750 ft | 363 kts | 139° |
| 2026-04-27 16:11 | 43.47710 | 15.72656 | 11328 ft | 313 kts | 139° |
| 2026-04-27 16:12 | 43.44541 | 15.76460 | 10796 ft | 297 kts | 139° |
| 2026-04-27 16:12 | 43.42988 | 15.78319 | 10457 ft | 295 kts | 139° |
| 2026-04-27 16:12 | 43.39907 | 15.82004 | 9742 ft | 292 kts | 139° |
| 2026-04-27 16:13 | 43.38379 | 15.83827 | 9363 ft | 290 kts | 140° |
| 2026-04-27 16:13 | 43.34754 | 15.85571 | 8609 ft | 283 kts | 188° |
| 2026-04-27 16:13 | 43.32883 | 15.84779 | 8182 ft | 282 kts | 203° |
| 2026-04-27 16:14 | 43.29300 | 15.82593 | 8008 ft | 283 kts | 205° |
| 2026-04-27 16:14 | 43.25705 | 15.80358 | 8011 ft | 284 kts | 205° |
| 2026-04-27 16:15 | 43.22108 | 15.78118 | 8008 ft | 284 kts | 205° |
| 2026-04-27 16:15 | 43.18514 | 15.75882 | 8007 ft | 284 kts | 205° |
| 2026-04-27 16:16 | 43.15506 | 15.74009 | 8007 ft | 284 kts | 205° |
| 2026-04-27 16:16 | 43.11913 | 15.71776 | 8018 ft | 284 kts | 205° |
| 2026-04-27 16:17 | 43.08329 | 15.69550 | 7771 ft | 281 kts | 205° |
| 2026-04-27 16:17 | 43.04784 | 15.67344 | 6962 ft | 279 kts | 205° |
| 2026-04-27 16:18 | 43.01167 | 15.65690 | 6181 ft | 275 kts | 178° |
| 2026-04-27 16:18 | 42.97976 | 15.68129 | 6017 ft | 277 kts | 128° |
| 2026-04-27 16:19 | 42.96824 | 15.70288 | 6007 ft | 278 kts | 125° |
| 2026-04-27 16:19 | 42.95733 | 15.72424 | 6005 ft | 278 kts | 125° |
| 2026-04-27 16:20 | 42.92431 | 15.78940 | 6008 ft | 278 kts | 125° |
| 2026-04-27 16:20 | 42.91332 | 15.81112 | 6005 ft | 279 kts | 125° |
| 2026-04-27 16:20 | 42.89149 | 15.85423 | 5435 ft | 274 kts | 125° |
| 2026-04-27 16:21 | 42.88067 | 15.87559 | 5007 ft | 274 kts | 125° |
| 2026-04-27 16:21 | 42.84561 | 15.94468 | 3988 ft | 269 kts | 125° |
| 2026-04-27 16:22 | 42.83495 | 15.96566 | 4006 ft | 270 kts | 125° |
| 2026-04-27 16:22 | 42.81372 | 16.00740 | 4019 ft | 258 kts | 125° |
| 2026-04-27 16:22 | 42.80387 | 16.02677 | 4006 ft | 242 kts | 125° |
| 2026-04-27 16:23 | 42.79436 | 16.04544 | 4006 ft | 239 kts | 125° |
| 2026-04-27 16:23 | 42.78575 | 16.06466 | 4017 ft | 238 kts | 111° |
| 2026-04-27 16:23 | 42.78919 | 16.10978 | 4018 ft | 265 kts | 53° |
| 2026-04-27 16:24 | 42.80326 | 16.12574 | 4010 ft | 267 kts | 22° |
| 2026-04-27 16:24 | 42.83962 | 16.13408 | 4012 ft | 268 kts | 6° |
| 2026-04-27 16:25 | 42.87664 | 16.13980 | 4010 ft | 268 kts | 6° |
| 2026-04-27 16:25 | 42.91369 | 16.14566 | 4018 ft | 268 kts | 6° |
| 2026-04-27 16:26 | 42.94482 | 16.15069 | 4004 ft | 268 kts | 6° |
| 2026-04-27 16:26 | 42.98184 | 16.15671 | 4013 ft | 268 kts | 6° |
| 2026-04-27 16:27 | 43.01868 | 16.16260 | 4002 ft | 268 kts | 6° |
| 2026-04-27 16:27 | 43.07419 | 16.17159 | 4012 ft | 268 kts | 6° |
| 2026-04-27 16:28 | 43.11085 | 16.17762 | 3513 ft | 264 kts | 6° |
| 2026-04-27 16:28 | 43.14744 | 16.18361 | 3512 ft | 266 kts | 6° |
| 2026-04-27 16:29 | 43.20256 | 16.19252 | 3517 ft | 266 kts | 6° |
| 2026-04-27 16:30 | 43.23892 | 16.19843 | 3509 ft | 252 kts | 6° |
| 2026-04-27 16:30 | 43.27141 | 16.20374 | 3517 ft | 222 kts | 6° |
| 2026-04-27 16:31 | 43.31775 | 16.21136 | 3514 ft | 224 kts | 6° |
| 2026-04-27 16:31 | 43.34852 | 16.21733 | 3510 ft | 225 kts | 19° |
| 2026-04-27 16:32 | 43.36821 | 16.24846 | 3513 ft | 226 kts | 69° |
| 2026-04-27 16:32 | 43.37608 | 16.26651 | 3386 ft | 223 kts | 46° |
| 2026-04-27 16:33 | 43.40012 | 16.29313 | 3000 ft | 222 kts | 35° |
| 2026-04-27 16:33 | 43.41264 | 16.30567 | 3006 ft | 222 kts | 36° |
| 2026-04-27 16:33 | 43.42456 | 16.31805 | 3025 ft | 209 kts | 37° |
| 2026-04-27 16:33 | 43.43580 | 16.33024 | 3036 ft | 204 kts | 38° |
| 2026-04-27 16:34 | 43.44671 | 16.34244 | 2993 ft | 200 kts | 39° |
| 2026-04-27 16:34 | 43.45728 | 16.35473 | 2814 ft | 197 kts | 40° |
| 2026-04-27 16:34 | 43.46737 | 16.36678 | 2616 ft | 191 kts | 40° |
| 2026-04-27 16:34 | 43.47743 | 16.37885 | 2240 ft | 193 kts | 40° |
| 2026-04-27 16:35 | 43.48744 | 16.39096 | 1884 ft | 189 kts | 40° |
| 2026-04-27 16:35 | 43.49790 | 16.40002 | 1741 ft | 170 kts | 21° |
| 2026-04-27 16:35 | 43.51933 | 16.39899 | 1380 ft | 151 kts | 331° |
| 2026-04-27 16:36 | 43.52905 | 16.39354 | 1280 ft | 149 kts | 340° |
| 2026-04-27 16:36 | 43.53928 | 16.39062 | 1284 ft | 150 kts | 351° |
| 2026-04-27 16:36 | 43.54889 | 16.38559 | 1344 ft | 149 kts | 313° |
| 2026-04-27 16:36 | 43.55471 | 16.37383 | 1313 ft | 150 kts | 300° |
| 2026-04-27 16:37 | 43.55933 | 16.36114 | 1110 ft | 147 kts | 289° |
| 2026-04-27 16:37 | 43.56138 | 16.34746 | 899 ft | 146 kts | 266° |
| 2026-04-27 16:37 | 43.55907 | 16.33393 | 624 ft | 146 kts | 241° |
| 2026-04-27 16:37 | 43.55288 | 16.32300 | 362 ft | 146 kts | 230° |
| 2026-04-27 16:38 | 43.54677 | 16.31199 | 133 ft | 143 kts | 233° |
| 2026-04-27 16:38 | 43.54097 | 16.30154 | 66 ft | 123 kts | 232° |
| 2026-04-27 16:38 | 43.53692 | 16.29435 | 83 ft | 65 kts | 232° |
| 2026-04-27 16:38 | 43.53445 | 16.28980 | 90 ft | 54 kts | 234° |
| 2026-04-27 16:39 | 43.53280 | 16.28670 | 87 ft | 27 kts | 233° |
| 2026-04-27 16:39 | 43.53199 | 16.28595 | 87 ft | 6 kts | 112° |
| 2026-04-27 16:39 | 43.53224 | 16.28624 | 86 ft | 7 kts | 32° |
| 2026-04-27 16:39 | 43.53278 | 16.28688 | 88 ft | 14 kts | 51° |
| 2026-04-27 16:40 | 43.53350 | 16.28814 | 88 ft | 20 kts | 52° |
| 2026-04-27 16:40 | 43.53447 | 16.28988 | 89 ft | 26 kts | 52° |
| 2026-04-27 16:40 | 43.53567 | 16.29202 | 85 ft | 28 kts | 52° |
| 2026-04-27 16:40 | 43.53678 | 16.29414 | 84 ft | 25 kts | 66° |
| 2026-04-27 16:41 | 43.53671 | 16.29587 | 65 ft | 13 kts | 156° |
| 2026-04-27 16:41 | 43.53623 | 16.29590 | 63 ft | 7 kts | 146° |
| 2026-04-27 16:41 | 43.53621 | 16.29650 | 68 ft | 5 kts | 91° |
| 2026-04-27 16:41 | 43.53620 | 16.29667 | 68 ft | 0 kts | 92° |